sensor_id;sensor_type;location;lat;lon;timestamp;temperature;humidity
6627;DHT22;3349;49.830;8.748;2023-06-24T00:01:33;16.10;79.40
6627;DHT22;3349;49.830;8.748;2023-06-24T00:04:00;16.10;79.10
6627;DHT22;3349;49.830;8.748;2023-06-24T00:06:27;16.10;80.20
6627;DHT22;3349;49.830;8.748;2023-06-24T00:08:55;16.00;80.50
6627;DHT22;3349;49.830;8.748;2023-06-24T00:11:27;16.00;81.00
6627;DHT22;3349;49.830;8.748;2023-06-24T00:13:54;15.90;81.60
6627;DHT22;3349;49.830;8.748;2023-06-24T00:16:20;15.90;82.20
6627;DHT22;3349;49.830;8.748;2023-06-24T00:18:53;15.80;82.70
6627;DHT22;3349;49.830;8.748;2023-06-24T00:21:20;15.80;83.10
6627;DHT22;3349;49.830;8.748;2023-06-24T00:23:48;15.70;84.20
6627;DHT22;3349;49.830;8.748;2023-06-24T00:26:16;15.70;84.30
6627;DHT22;3349;49.830;8.748;2023-06-24T00:28:43;15.70;84.80
6627;DHT22;3349;49.830;8.748;2023-06-24T00:31:10;15.60;84.20
6627;DHT22;3349;49.830;8.748;2023-06-24T00:33:37;15.60;84.50
6627;DHT22;3349;49.830;8.748;2023-06-24T00:36:04;15.60;85.40
6627;DHT22;3349;49.830;8.748;2023-06-24T00:38:32;15.60;85.10
6627;DHT22;3349;49.830;8.748;2023-06-24T00:40:59;15.50;85.80
6627;DHT22;3349;49.830;8.748;2023-06-24T00:43:27;15.50;87.80
6627;DHT22;3349;49.830;8.748;2023-06-24T00:45:55;15.60;87.10
6627;DHT22;3349;49.830;8.748;2023-06-24T00:48:22;15.60;86.60
6627;DHT22;3349;49.830;8.748;2023-06-24T00:50:49;15.50;86.60
6627;DHT22;3349;49.830;8.748;2023-06-24T00:53:16;15.50;86.80
6627;DHT22;3349;49.830;8.748;2023-06-24T00:55:43;15.50;86.20
6627;DHT22;3349;49.830;8.748;2023-06-24T00:58:11;15.40;85.90
6627;DHT22;3349;49.830;8.748;2023-06-24T01:00:44;15.50;86.80
6627;DHT22;3349;49.830;8.748;2023-06-24T01:03:12;15.40;86.80
6627;DHT22;3349;49.830;8.748;2023-06-24T01:05:40;15.40;87.10
6627;DHT22;3349;49.830;8.748;2023-06-24T01:08:07;15.30;87.50
6627;DHT22;3349;49.830;8.748;2023-06-24T01:10:35;15.30;88.10
6627;DHT22;3349;49.830;8.748;2023-06-24T01:13:02;15.30;88.50
6627;DHT22;3349;49.830;8.748;2023-06-24T01:15:29;15.30;88.40
6627;DHT22;3349;49.830;8.748;2023-06-24T01:18:02;15.30;88.20
6627;DHT22;3349;49.830;8.748;2023-06-24T01:20:36;15.30;88.40
6627;DHT22;3349;49.830;8.748;2023-06-24T01:23:33;15.30;89.10
6627;DHT22;3349;49.830;8.748;2023-06-24T01:26:31;15.20;89.90
6627;DHT22;3349;49.830;8.748;2023-06-24T01:29:15;15.20;89.10
6627;DHT22;3349;49.830;8.748;2023-06-24T01:31:51;15.10;90.00
6627;DHT22;3349;49.830;8.748;2023-06-24T01:34:25;15.10;90.20
6627;DHT22;3349;49.830;8.748;2023-06-24T01:37:00;15.10;90.20
6627;DHT22;3349;49.830;8.748;2023-06-24T01:39:35;15.10;90.20
6627;DHT22;3349;49.830;8.748;2023-06-24T01:42:07;15.00;90.00
6627;DHT22;3349;49.830;8.748;2023-06-24T01:44:35;15.00;90.30
6627;DHT22;3349;49.830;8.748;2023-06-24T01:47:05;14.90;90.50
6627;DHT22;3349;49.830;8.748;2023-06-24T01:49:34;14.90;90.90
6627;DHT22;3349;49.830;8.748;2023-06-24T01:52:04;14.80;91.00
6627;DHT22;3349;49.830;8.748;2023-06-24T01:54:34;14.90;91.40
6627;DHT22;3349;49.830;8.748;2023-06-24T01:57:03;14.90;91.40
6627;DHT22;3349;49.830;8.748;2023-06-24T01:59:32;14.90;91.30
6627;DHT22;3349;49.830;8.748;2023-06-24T02:02:00;14.80;91.30
6627;DHT22;3349;49.830;8.748;2023-06-24T02:04:29;14.80;91.30
6627;DHT22;3349;49.830;8.748;2023-06-24T02:06:58;14.70;91.50
6627;DHT22;3349;49.830;8.748;2023-06-24T02:09:26;14.70;92.00
6627;DHT22;3349;49.830;8.748;2023-06-24T02:11:56;14.70;92.40
6627;DHT22;3349;49.830;8.748;2023-06-24T02:14:25;14.60;92.30
6627;DHT22;3349;49.830;8.748;2023-06-24T02:16:53;14.60;92.60
6627;DHT22;3349;49.830;8.748;2023-06-24T02:19:23;14.60;92.50
6627;DHT22;3349;49.830;8.748;2023-06-24T02:21:53;14.60;92.70
6627;DHT22;3349;49.830;8.748;2023-06-24T02:24:21;14.60;92.90
6627;DHT22;3349;49.830;8.748;2023-06-24T02:26:47;14.60;92.80
6627;DHT22;3349;49.830;8.748;2023-06-24T02:29:15;14.50;92.90
6627;DHT22;3349;49.830;8.748;2023-06-24T02:31:42;14.50;93.20
6627;DHT22;3349;49.830;8.748;2023-06-24T02:34:09;14.40;93.60
6627;DHT22;3349;49.830;8.748;2023-06-24T02:36:36;14.40;94.10
6627;DHT22;3349;49.830;8.748;2023-06-24T02:39:04;14.40;94.40
6627;DHT22;3349;49.830;8.748;2023-06-24T02:41:31;14.40;94.50
6627;DHT22;3349;49.830;8.748;2023-06-24T02:43:58;14.40;94.50
6627;DHT22;3349;49.830;8.748;2023-06-24T02:46:25;14.40;94.40
6627;DHT22;3349;49.830;8.748;2023-06-24T02:48:55;14.40;94.30
6627;DHT22;3349;49.830;8.748;2023-06-24T02:51:22;14.30;94.40
6627;DHT22;3349;49.830;8.748;2023-06-24T02:53:50;14.30;94.50
6627;DHT22;3349;49.830;8.748;2023-06-24T02:56:19;14.30;94.50
6627;DHT22;3349;49.830;8.748;2023-06-24T02:58:48;14.20;94.40
6627;DHT22;3349;49.830;8.748;2023-06-24T03:01:16;14.20;94.90
6627;DHT22;3349;49.830;8.748;2023-06-24T03:03:44;14.20;95.10
6627;DHT22;3349;49.830;8.748;2023-06-24T03:06:14;14.20;95.40
6627;DHT22;3349;49.830;8.748;2023-06-24T03:08:43;14.20;95.40
6627;DHT22;3349;49.830;8.748;2023-06-24T03:11:12;14.20;95.50
6627;DHT22;3349;49.830;8.748;2023-06-24T03:13:40;14.20;95.70
6627;DHT22;3349;49.830;8.748;2023-06-24T03:16:07;14.20;95.70
6627;DHT22;3349;49.830;8.748;2023-06-24T03:18:37;14.20;95.60
6627;DHT22;3349;49.830;8.748;2023-06-24T03:21:05;14.20;95.70
6627;DHT22;3349;49.830;8.748;2023-06-24T03:23:32;14.20;96.00
6627;DHT22;3349;49.830;8.748;2023-06-24T03:25:58;14.20;95.90
6627;DHT22;3349;49.830;8.748;2023-06-24T03:28:25;14.30;96.20
6627;DHT22;3349;49.830;8.748;2023-06-24T03:30:53;14.30;95.80
6627;DHT22;3349;49.830;8.748;2023-06-24T03:33:20;14.30;95.30
6627;DHT22;3349;49.830;8.748;2023-06-24T03:35:47;14.30;95.20
6627;DHT22;3349;49.830;8.748;2023-06-24T03:38:13;14.30;94.70
6627;DHT22;3349;49.830;8.748;2023-06-24T03:40:40;14.30;95.00
6627;DHT22;3349;49.830;8.748;2023-06-24T03:43:07;14.30;95.30
6627;DHT22;3349;49.830;8.748;2023-06-24T03:45:33;14.30;95.60
6627;DHT22;3349;49.830;8.748;2023-06-24T03:48:01;14.30;95.90
6627;DHT22;3349;49.830;8.748;2023-06-24T03:50:28;14.30;96.00
6627;DHT22;3349;49.830;8.748;2023-06-24T03:52:55;14.30;95.90
6627;DHT22;3349;49.830;8.748;2023-06-24T03:55:22;14.40;96.00
6627;DHT22;3349;49.830;8.748;2023-06-24T03:57:48;14.40;95.70
6627;DHT22;3349;49.830;8.748;2023-06-24T04:00:16;14.40;95.60
6627;DHT22;3349;49.830;8.748;2023-06-24T04:02:46;14.50;95.90
6627;DHT22;3349;49.830;8.748;2023-06-24T04:05:15;14.50;95.80
6627;DHT22;3349;49.830;8.748;2023-06-24T04:07:42;14.50;95.60
6627;DHT22;3349;49.830;8.748;2023-06-24T04:10:13;14.60;95.40
6627;DHT22;3349;49.830;8.748;2023-06-24T04:12:39;14.60;95.40
6627;DHT22;3349;49.830;8.748;2023-06-24T04:15:08;14.60;95.30
6627;DHT22;3349;49.830;8.748;2023-06-24T04:17:34;14.60;95.60
6627;DHT22;3349;49.830;8.748;2023-06-24T04:20:01;14.60;95.10
6627;DHT22;3349;49.830;8.748;2023-06-24T04:22:30;14.60;95.20
6627;DHT22;3349;49.830;8.748;2023-06-24T04:24:57;14.70;95.00
6627;DHT22;3349;49.830;8.748;2023-06-24T04:27:24;14.70;95.10
6627;DHT22;3349;49.830;8.748;2023-06-24T04:29:50;14.70;95.10
6627;DHT22;3349;49.830;8.748;2023-06-24T04:32:17;14.80;95.20
6627;DHT22;3349;49.830;8.748;2023-06-24T04:34:44;14.90;95.20
6627;DHT22;3349;49.830;8.748;2023-06-24T04:37:11;15.00;95.10
6627;DHT22;3349;49.830;8.748;2023-06-24T04:39:39;15.10;95.10
6627;DHT22;3349;49.830;8.748;2023-06-24T04:42:05;15.20;94.70
6627;DHT22;3349;49.830;8.748;2023-06-24T04:44:32;15.30;94.10
6627;DHT22;3349;49.830;8.748;2023-06-24T04:46:59;15.40;93.70
6627;DHT22;3349;49.830;8.748;2023-06-24T04:49:25;15.40;93.60
6627;DHT22;3349;49.830;8.748;2023-06-24T04:51:52;15.40;94.20
6627;DHT22;3349;49.830;8.748;2023-06-24T04:54:19;15.50;94.50
6627;DHT22;3349;49.830;8.748;2023-06-24T04:56:47;15.60;93.90
6627;DHT22;3349;49.830;8.748;2023-06-24T04:59:16;15.80;93.70
6627;DHT22;3349;49.830;8.748;2023-06-24T05:01:43;15.80;94.10
6627;DHT22;3349;49.830;8.748;2023-06-24T05:04:09;15.80;94.40
6627;DHT22;3349;49.830;8.748;2023-06-24T05:06:36;15.90;94.50
6627;DHT22;3349;49.830;8.748;2023-06-24T05:09:03;16.00;94.70
6627;DHT22;3349;49.830;8.748;2023-06-24T05:11:29;16.00;94.90
6627;DHT22;3349;49.830;8.748;2023-06-24T05:13:57;16.00;95.20
6627;DHT22;3349;49.830;8.748;2023-06-24T05:16:24;16.10;95.30
6627;DHT22;3349;49.830;8.748;2023-06-24T05:18:51;16.10;96.20
6627;DHT22;3349;49.830;8.748;2023-06-24T05:21:17;16.20;96.40
6627;DHT22;3349;49.830;8.748;2023-06-24T05:23:44;16.40;96.40
6627;DHT22;3349;49.830;8.748;2023-06-24T05:26:11;16.40;96.20
6627;DHT22;3349;49.830;8.748;2023-06-24T05:28:37;16.50;96.20
6627;DHT22;3349;49.830;8.748;2023-06-24T05:31:05;16.70;96.00
6627;DHT22;3349;49.830;8.748;2023-06-24T05:33:32;16.90;95.60
6627;DHT22;3349;49.830;8.748;2023-06-24T05:35:59;17.00;95.60
6627;DHT22;3349;49.830;8.748;2023-06-24T05:38:26;17.00;95.50
6627;DHT22;3349;49.830;8.748;2023-06-24T05:40:52;17.10;95.00
6627;DHT22;3349;49.830;8.748;2023-06-24T05:43:19;17.20;94.90
6627;DHT22;3349;49.830;8.748;2023-06-24T05:45:46;17.40;95.20
6627;DHT22;3349;49.830;8.748;2023-06-24T05:48:14;17.40;94.70
6627;DHT22;3349;49.830;8.748;2023-06-24T05:50:41;17.50;94.20
6627;DHT22;3349;49.830;8.748;2023-06-24T05:53:07;17.60;93.20
6627;DHT22;3349;49.830;8.748;2023-06-24T05:55:34;17.80;92.30
6627;DHT22;3349;49.830;8.748;2023-06-24T05:58:01;17.90;91.90
6627;DHT22;3349;49.830;8.748;2023-06-24T06:00:27;18.10;85.70
6627;DHT22;3349;49.830;8.748;2023-06-24T06:02:54;18.20;81.30
6627;DHT22;3349;49.830;8.748;2023-06-24T06:05:22;18.40;78.70
6627;DHT22;3349;49.830;8.748;2023-06-24T06:07:49;18.50;76.60
6627;DHT22;3349;49.830;8.748;2023-06-24T06:10:17;18.70;75.20
6627;DHT22;3349;49.830;8.748;2023-06-24T06:12:44;18.80;73.80
6627;DHT22;3349;49.830;8.748;2023-06-24T06:15:10;18.90;73.50
6627;DHT22;3349;49.830;8.748;2023-06-24T06:17:37;19.00;73.50
6627;DHT22;3349;49.830;8.748;2023-06-24T06:20:05;19.10;71.80
6627;DHT22;3349;49.830;8.748;2023-06-24T06:22:33;19.20;71.10
6627;DHT22;3349;49.830;8.748;2023-06-24T06:25:03;19.30;70.00
6627;DHT22;3349;49.830;8.748;2023-06-24T06:27:30;19.40;70.30
6627;DHT22;3349;49.830;8.748;2023-06-24T06:29:57;19.50;69.40
6627;DHT22;3349;49.830;8.748;2023-06-24T06:32:24;19.60;69.00
6627;DHT22;3349;49.830;8.748;2023-06-24T06:34:50;19.70;68.50
6627;DHT22;3349;49.830;8.748;2023-06-24T06:37:17;19.80;68.10
6627;DHT22;3349;49.830;8.748;2023-06-24T06:39:45;19.90;67.00
6627;DHT22;3349;49.830;8.748;2023-06-24T06:42:12;19.90;66.30
6627;DHT22;3349;49.830;8.748;2023-06-24T06:44:40;20.10;65.90
6627;DHT22;3349;49.830;8.748;2023-06-24T06:47:07;20.10;65.90
6627;DHT22;3349;49.830;8.748;2023-06-24T06:49:34;20.20;65.20
6627;DHT22;3349;49.830;8.748;2023-06-24T06:52:00;20.30;65.00
6627;DHT22;3349;49.830;8.748;2023-06-24T06:54:27;20.40;64.40
6627;DHT22;3349;49.830;8.748;2023-06-24T06:56:55;20.40;64.30
6627;DHT22;3349;49.830;8.748;2023-06-24T06:59:26;20.50;64.00
6627;DHT22;3349;49.830;8.748;2023-06-24T07:01:53;20.60;63.50
6627;DHT22;3349;49.830;8.748;2023-06-24T07:04:20;20.70;62.30
6627;DHT22;3349;49.830;8.748;2023-06-24T07:06:46;20.80;61.40
6627;DHT22;3349;49.830;8.748;2023-06-24T07:09:13;20.90;60.30
6627;DHT22;3349;49.830;8.748;2023-06-24T07:11:40;21.00;59.70
6627;DHT22;3349;49.830;8.748;2023-06-24T07:14:09;21.00;59.50
6627;DHT22;3349;49.830;8.748;2023-06-24T07:16:36;21.10;59.10
6627;DHT22;3349;49.830;8.748;2023-06-24T07:19:03;21.20;58.80
6627;DHT22;3349;49.830;8.748;2023-06-24T07:21:29;21.20;58.90
6627;DHT22;3349;49.830;8.748;2023-06-24T07:23:56;21.40;58.20
6627;DHT22;3349;49.830;8.748;2023-06-24T07:26:23;21.40;57.70
6627;DHT22;3349;49.830;8.748;2023-06-24T07:28:49;21.50;56.70
6627;DHT22;3349;49.830;8.748;2023-06-24T07:31:18;21.60;55.50
6627;DHT22;3349;49.830;8.748;2023-06-24T07:33:44;21.70;56.00
6627;DHT22;3349;49.830;8.748;2023-06-24T07:36:11;21.80;55.40
6627;DHT22;3349;49.830;8.748;2023-06-24T07:38:39;22.00;55.10
6627;DHT22;3349;49.830;8.748;2023-06-24T07:41:05;22.10;54.70
6627;DHT22;3349;49.830;8.748;2023-06-24T07:43:32;22.20;54.90
6627;DHT22;3349;49.830;8.748;2023-06-24T07:45:59;22.30;55.10
6627;DHT22;3349;49.830;8.748;2023-06-24T07:48:27;22.40;54.80
6627;DHT22;3349;49.830;8.748;2023-06-24T07:50:54;22.60;53.80
6627;DHT22;3349;49.830;8.748;2023-06-24T07:53:20;22.70;53.30
6627;DHT22;3349;49.830;8.748;2023-06-24T07:55:47;22.90;52.90
6627;DHT22;3349;49.830;8.748;2023-06-24T07:58:14;23.00;52.50
6627;DHT22;3349;49.830;8.748;2023-06-24T08:00:41;23.00;52.20
6627;DHT22;3349;49.830;8.748;2023-06-24T08:03:08;23.10;51.30
6627;DHT22;3349;49.830;8.748;2023-06-24T08:05:36;23.30;51.40
6627;DHT22;3349;49.830;8.748;2023-06-24T08:08:04;23.50;51.60
6627;DHT22;3349;49.830;8.748;2023-06-24T08:10:31;23.80;50.00
6627;DHT22;3349;49.830;8.748;2023-06-24T08:12:58;23.80;49.30
6627;DHT22;3349;49.830;8.748;2023-06-24T08:15:25;23.80;48.70
6627;DHT22;3349;49.830;8.748;2023-06-24T08:17:51;24.10;48.70
6627;DHT22;3349;49.830;8.748;2023-06-24T08:20:19;24.30;48.00
6627;DHT22;3349;49.830;8.748;2023-06-24T08:22:47;24.50;47.80
6627;DHT22;3349;49.830;8.748;2023-06-24T08:25:14;24.80;46.20
6627;DHT22;3349;49.830;8.748;2023-06-24T08:31:04;25.50;45.40
6627;DHT22;3349;49.830;8.748;2023-06-24T08:33:31;26.00;45.00
6627;DHT22;3349;49.830;8.748;2023-06-24T08:35:58;26.60;43.40
6627;DHT22;3349;49.830;8.748;2023-06-24T08:38:26;27.10;42.60
6627;DHT22;3349;49.830;8.748;2023-06-24T08:40:53;27.50;40.00
6627;DHT22;3349;49.830;8.748;2023-06-24T08:43:20;28.40;37.10
6627;DHT22;3349;49.830;8.748;2023-06-24T08:45:46;29.30;36.00
6627;DHT22;3349;49.830;8.748;2023-06-24T08:48:41;30.30;34.00
6627;DHT22;3349;49.830;8.748;2023-06-24T08:51:09;30.90;32.00
6627;DHT22;3349;49.830;8.748;2023-06-24T08:53:41;31.50;30.80
6627;DHT22;3349;49.830;8.748;2023-06-24T08:56:09;31.80;29.80
6627;DHT22;3349;49.830;8.748;2023-06-24T08:58:36;32.00;29.60
6627;DHT22;3349;49.830;8.748;2023-06-24T09:01:03;31.80;29.80
6627;DHT22;3349;49.830;8.748;2023-06-24T09:03:30;32.00;29.10
6627;DHT22;3349;49.830;8.748;2023-06-24T09:05:57;31.40;29.70
6627;DHT22;3349;49.830;8.748;2023-06-24T09:08:24;31.40;30.00
6627;DHT22;3349;49.830;8.748;2023-06-24T09:10:54;30.70;30.20
6627;DHT22;3349;49.830;8.748;2023-06-24T09:13:21;30.20;30.50
6627;DHT22;3349;49.830;8.748;2023-06-24T09:15:53;29.70;31.80
6627;DHT22;3349;49.830;8.748;2023-06-24T09:18:31;30.20;30.90
6627;DHT22;3349;49.830;8.748;2023-06-24T09:20:57;30.40;30.30
6627;DHT22;3349;49.830;8.748;2023-06-24T09:23:26;30.70;30.30
6627;DHT22;3349;49.830;8.748;2023-06-24T09:25:57;31.50;29.40
6627;DHT22;3349;49.830;8.748;2023-06-24T09:28:26;31.80;28.40
6627;DHT22;3349;49.830;8.748;2023-06-24T09:31:04;32.30;28.10
6627;DHT22;3349;49.830;8.748;2023-06-24T09:33:31;32.50;27.60
6627;DHT22;3349;49.830;8.748;2023-06-24T09:35:58;31.60;28.40
6627;DHT22;3349;49.830;8.748;2023-06-24T09:38:32;30.80;29.70
6627;DHT22;3349;49.830;8.748;2023-06-24T09:41:04;31.20;29.10
6627;DHT22;3349;49.830;8.748;2023-06-24T09:43:31;32.50;27.60
6627;DHT22;3349;49.830;8.748;2023-06-24T09:46:01;34.10;26.60
6627;DHT22;3349;49.830;8.748;2023-06-24T09:48:28;34.70;25.10
6627;DHT22;3349;49.830;8.748;2023-06-24T09:50:55;35.00;24.60
6627;DHT22;3349;49.830;8.748;2023-06-24T09:53:25;36.30;23.50
6627;DHT22;3349;49.830;8.748;2023-06-24T09:55:52;35.60;22.40
6627;DHT22;3349;49.830;8.748;2023-06-24T09:58:21;35.50;23.10
6627;DHT22;3349;49.830;8.748;2023-06-24T10:00:49;35.80;23.70
6627;DHT22;3349;49.830;8.748;2023-06-24T10:03:16;36.50;22.70
6627;DHT22;3349;49.830;8.748;2023-06-24T10:05:44;36.80;22.20
6627;DHT22;3349;49.830;8.748;2023-06-24T10:08:13;36.40;22.30
6627;DHT22;3349;49.830;8.748;2023-06-24T10:10:40;36.60;22.30
6627;DHT22;3349;49.830;8.748;2023-06-24T10:13:06;36.20;22.20
6627;DHT22;3349;49.830;8.748;2023-06-24T10:15:35;36.20;22.20
6627;DHT22;3349;49.830;8.748;2023-06-24T10:18:03;36.70;22.50
6627;DHT22;3349;49.830;8.748;2023-06-24T10:20:30;37.20;21.60
6627;DHT22;3349;49.830;8.748;2023-06-24T10:23:06;36.30;22.30
6627;DHT22;3349;49.830;8.748;2023-06-24T10:25:35;36.30;22.30
6627;DHT22;3349;49.830;8.748;2023-06-24T10:28:03;36.10;22.70
6627;DHT22;3349;49.830;8.748;2023-06-24T10:30:30;35.50;22.70
6627;DHT22;3349;49.830;8.748;2023-06-24T10:33:00;35.50;22.80
6627;DHT22;3349;49.830;8.748;2023-06-24T10:35:28;34.30;24.40
6627;DHT22;3349;49.830;8.748;2023-06-24T10:37:56;34.30;24.40
6627;DHT22;3349;49.830;8.748;2023-06-24T10:40:37;34.00;24.50
6627;DHT22;3349;49.830;8.748;2023-06-24T10:43:25;34.90;24.00
6627;DHT22;3349;49.830;8.748;2023-06-24T10:45:53;34.60;23.50
6627;DHT22;3349;49.830;8.748;2023-06-24T10:48:22;32.80;24.80
6627;DHT22;3349;49.830;8.748;2023-06-24T10:50:49;31.40;26.50
6627;DHT22;3349;49.830;8.748;2023-06-24T10:53:16;30.60;27.80
6627;DHT22;3349;49.830;8.748;2023-06-24T10:55:45;30.10;28.60
6627;DHT22;3349;49.830;8.748;2023-06-24T10:58:13;30.40;28.80
6627;DHT22;3349;49.830;8.748;2023-06-24T11:00:41;31.30;28.00
6627;DHT22;3349;49.830;8.748;2023-06-24T11:03:09;32.90;26.40
6627;DHT22;3349;49.830;8.748;2023-06-24T11:05:39;33.30;24.90
6627;DHT22;3349;49.830;8.748;2023-06-24T11:08:06;33.30;24.40
6627;DHT22;3349;49.830;8.748;2023-06-24T11:10:33;33.10;23.90
6627;DHT22;3349;49.830;8.748;2023-06-24T11:13:08;32.50;24.00
6627;DHT22;3349;49.830;8.748;2023-06-24T11:15:35;32.00;24.20
6627;DHT22;3349;49.830;8.748;2023-06-24T11:18:02;30.90;24.90
6627;DHT22;3349;49.830;8.748;2023-06-24T11:20:29;30.40;26.60
6627;DHT22;3349;49.830;8.748;2023-06-24T11:22:57;29.70;27.10
6627;DHT22;3349;49.830;8.748;2023-06-24T11:25:24;29.70;27.90
6627;DHT22;3349;49.830;8.748;2023-06-24T11:27:51;30.70;26.70
6627;DHT22;3349;49.830;8.748;2023-06-24T11:30:19;31.20;26.20
6627;DHT22;3349;49.830;8.748;2023-06-24T11:32:46;32.40;25.00
6627;DHT22;3349;49.830;8.748;2023-06-24T11:35:13;33.40;24.00
6627;DHT22;3349;49.830;8.748;2023-06-24T11:37:42;34.40;22.60
6627;DHT22;3349;49.830;8.748;2023-06-24T11:40:11;36.00;21.90
6627;DHT22;3349;49.830;8.748;2023-06-24T11:42:39;36.50;20.70
6627;DHT22;3349;49.830;8.748;2023-06-24T11:45:07;36.40;20.10
6627;DHT22;3349;49.830;8.748;2023-06-24T11:47:35;34.90;20.60
6627;DHT22;3349;49.830;8.748;2023-06-24T11:50:04;34.80;21.50
6627;DHT22;3349;49.830;8.748;2023-06-24T11:52:39;34.60;22.00
6627;DHT22;3349;49.830;8.748;2023-06-24T11:55:13;35.20;21.70
6627;DHT22;3349;49.830;8.748;2023-06-24T11:57:57;35.20;21.50
6627;DHT22;3349;49.830;8.748;2023-06-24T12:00:25;35.90;20.90
6627;DHT22;3349;49.830;8.748;2023-06-24T12:02:56;35.00;20.40
6627;DHT22;3349;49.830;8.748;2023-06-24T12:05:24;33.70;22.30
6627;DHT22;3349;49.830;8.748;2023-06-24T12:07:55;32.40;23.60
6627;DHT22;3349;49.830;8.748;2023-06-24T12:10:23;31.30;24.40
6627;DHT22;3349;49.830;8.748;2023-06-24T12:12:50;31.80;24.80
6627;DHT22;3349;49.830;8.748;2023-06-24T12:15:17;33.20;24.40
6627;DHT22;3349;49.830;8.748;2023-06-24T12:17:44;32.80;23.30
6627;DHT22;3349;49.830;8.748;2023-06-24T12:20:11;33.20;23.20
6627;DHT22;3349;49.830;8.748;2023-06-24T12:22:39;33.40;22.60
6627;DHT22;3349;49.830;8.748;2023-06-24T12:25:07;33.40;22.30
6627;DHT22;3349;49.830;8.748;2023-06-24T12:27:35;33.00;22.60
6627;DHT22;3349;49.830;8.748;2023-06-24T12:30:02;32.70;23.60
6627;DHT22;3349;49.830;8.748;2023-06-24T12:32:29;32.70;23.70
6627;DHT22;3349;49.830;8.748;2023-06-24T12:34:56;33.20;23.10
6627;DHT22;3349;49.830;8.748;2023-06-24T12:37:22;33.30;23.30
6627;DHT22;3349;49.830;8.748;2023-06-24T12:39:49;34.20;22.00
6627;DHT22;3349;49.830;8.748;2023-06-24T12:42:17;35.20;20.90
6627;DHT22;3349;49.830;8.748;2023-06-24T12:44:45;35.00;20.60
6627;DHT22;3349;49.830;8.748;2023-06-24T12:47:12;35.30;19.60
6627;DHT22;3349;49.830;8.748;2023-06-24T12:49:39;35.00;19.70
6627;DHT22;3349;49.830;8.748;2023-06-24T12:52:06;34.80;19.90
6627;DHT22;3349;49.830;8.748;2023-06-24T12:54:33;35.20;20.20
6627;DHT22;3349;49.830;8.748;2023-06-24T12:57:00;35.90;19.90
6627;DHT22;3349;49.830;8.748;2023-06-24T12:59:26;36.40;19.00
6627;DHT22;3349;49.830;8.748;2023-06-24T13:01:55;36.60;18.80
6627;DHT22;3349;49.830;8.748;2023-06-24T13:04:21;37.30;19.00
6627;DHT22;3349;49.830;8.748;2023-06-24T13:06:50;37.40;18.50
6627;DHT22;3349;49.830;8.748;2023-06-24T13:09:17;37.20;17.70
6627;DHT22;3349;49.830;8.748;2023-06-24T13:11:44;36.60;18.00
6627;DHT22;3349;49.830;8.748;2023-06-24T13:14:10;36.20;18.50
6627;DHT22;3349;49.830;8.748;2023-06-24T13:16:37;36.40;18.20
6627;DHT22;3349;49.830;8.748;2023-06-24T13:19:05;36.30;18.50
6627;DHT22;3349;49.830;8.748;2023-06-24T13:21:32;35.50;18.80
6627;DHT22;3349;49.830;8.748;2023-06-24T13:23:59;34.10;19.70
6627;DHT22;3349;49.830;8.748;2023-06-24T13:26:25;33.50;20.90
6627;DHT22;3349;49.830;8.748;2023-06-24T13:28:52;33.10;21.50
6627;DHT22;3349;49.830;8.748;2023-06-24T13:31:20;32.90;21.30
6627;DHT22;3349;49.830;8.748;2023-06-24T13:33:47;32.70;21.60
6627;DHT22;3349;49.830;8.748;2023-06-24T13:36:30;32.20;21.80
6627;DHT22;3349;49.830;8.748;2023-06-24T13:38:58;31.80;23.00
6627;DHT22;3349;49.830;8.748;2023-06-24T13:41:25;31.50;23.00
6627;DHT22;3349;49.830;8.748;2023-06-24T13:43:54;31.40;22.90
6627;DHT22;3349;49.830;8.748;2023-06-24T13:46:21;31.10;23.30
6627;DHT22;3349;49.830;8.748;2023-06-24T13:48:48;30.70;23.10
6627;DHT22;3349;49.830;8.748;2023-06-24T13:51:17;30.70;23.90
6627;DHT22;3349;49.830;8.748;2023-06-24T13:53:44;30.90;23.20
6627;DHT22;3349;49.830;8.748;2023-06-24T13:56:11;31.30;23.30
6627;DHT22;3349;49.830;8.748;2023-06-24T13:58:38;31.70;22.00
6627;DHT22;3349;49.830;8.748;2023-06-24T14:01:05;31.50;22.40
6627;DHT22;3349;49.830;8.748;2023-06-24T14:03:31;31.30;22.60
6627;DHT22;3349;49.830;8.748;2023-06-24T14:05:58;31.00;23.30
6627;DHT22;3349;49.830;8.748;2023-06-24T14:08:28;30.80;22.80
6627;DHT22;3349;49.830;8.748;2023-06-24T14:10:55;30.70;23.10
6627;DHT22;3349;49.830;8.748;2023-06-24T14:13:22;31.00;22.80
6627;DHT22;3349;49.830;8.748;2023-06-24T14:15:49;31.10;23.20
6627;DHT22;3349;49.830;8.748;2023-06-24T14:18:16;30.90;23.20
6627;DHT22;3349;49.830;8.748;2023-06-24T14:20:42;30.50;23.50
6627;DHT22;3349;49.830;8.748;2023-06-24T14:23:09;30.20;24.00
6627;DHT22;3349;49.830;8.748;2023-06-24T14:25:37;29.90;24.20
6627;DHT22;3349;49.830;8.748;2023-06-24T14:28:04;29.60;24.30
6627;DHT22;3349;49.830;8.748;2023-06-24T14:30:32;29.70;24.70
6627;DHT22;3349;49.830;8.748;2023-06-24T14:33:00;30.40;24.30
6627;DHT22;3349;49.830;8.748;2023-06-24T14:35:27;31.10;23.30
6627;DHT22;3349;49.830;8.748;2023-06-24T14:37:54;32.10;22.50
6627;DHT22;3349;49.830;8.748;2023-06-24T14:40:21;32.70;21.60
6627;DHT22;3349;49.830;8.748;2023-06-24T14:42:49;32.90;21.30
6627;DHT22;3349;49.830;8.748;2023-06-24T14:45:16;33.10;20.70
6627;DHT22;3349;49.830;8.748;2023-06-24T14:47:42;33.30;21.50
6627;DHT22;3349;49.830;8.748;2023-06-24T14:50:10;33.90;21.60
6627;DHT22;3349;49.830;8.748;2023-06-24T14:52:36;34.10;21.20
6627;DHT22;3349;49.830;8.748;2023-06-24T14:55:03;34.60;20.60
6627;DHT22;3349;49.830;8.748;2023-06-24T14:57:30;34.70;20.30
6627;DHT22;3349;49.830;8.748;2023-06-24T14:59:58;34.80;20.20
6627;DHT22;3349;49.830;8.748;2023-06-24T15:02:25;34.90;19.80
6627;DHT22;3349;49.830;8.748;2023-06-24T15:04:52;34.70;19.60
6627;DHT22;3349;49.830;8.748;2023-06-24T15:07:18;34.00;20.80
6627;DHT22;3349;49.830;8.748;2023-06-24T15:09:45;34.00;20.60
6627;DHT22;3349;49.830;8.748;2023-06-24T15:12:12;33.50;20.90
6627;DHT22;3349;49.830;8.748;2023-06-24T15:14:38;33.30;21.30
6627;DHT22;3349;49.830;8.748;2023-06-24T15:17:06;32.70;21.30
6627;DHT22;3349;49.830;8.748;2023-06-24T15:19:33;32.80;21.70
6627;DHT22;3349;49.830;8.748;2023-06-24T15:22:00;32.90;21.40
6627;DHT22;3349;49.830;8.748;2023-06-24T15:24:27;33.20;20.70
6627;DHT22;3349;49.830;8.748;2023-06-24T15:26:55;33.40;20.60
6627;DHT22;3349;49.830;8.748;2023-06-24T15:29:22;33.60;20.50
6627;DHT22;3349;49.830;8.748;2023-06-24T15:31:49;33.60;20.20
6627;DHT22;3349;49.830;8.748;2023-06-24T15:34:17;33.60;20.40
6627;DHT22;3349;49.830;8.748;2023-06-24T15:36:44;33.70;20.30
6627;DHT22;3349;49.830;8.748;2023-06-24T15:39:10;33.30;20.60
6627;DHT22;3349;49.830;8.748;2023-06-24T15:41:38;33.00;20.60
6627;DHT22;3349;49.830;8.748;2023-06-24T15:44:05;32.80;20.50
6627;DHT22;3349;49.830;8.748;2023-06-24T15:46:32;32.70;20.80
6627;DHT22;3349;49.830;8.748;2023-06-24T15:48:59;32.30;21.30
6627;DHT22;3349;49.830;8.748;2023-06-24T15:51:27;31.90;21.70
6627;DHT22;3349;49.830;8.748;2023-06-24T15:53:53;31.30;22.20
6627;DHT22;3349;49.830;8.748;2023-06-24T15:56:20;31.00;22.70
6627;DHT22;3349;49.830;8.748;2023-06-24T15:58:47;30.80;22.90
6627;DHT22;3349;49.830;8.748;2023-06-24T16:01:13;30.90;22.40
6627;DHT22;3349;49.830;8.748;2023-06-24T16:03:40;30.90;22.20
6627;DHT22;3349;49.830;8.748;2023-06-24T16:06:07;30.80;22.20
6627;DHT22;3349;49.830;8.748;2023-06-24T16:08:35;31.00;22.80
6627;DHT22;3349;49.830;8.748;2023-06-24T16:11:01;31.00;22.70